sensor_id;sensor_type;location;lat;lon;timestamp;pressure;altitude;pressure_sealevel;temperature;humidity
77410;BME280;66481;51.332;22.804;2023-04-23T00:01:04;99472.47;;;6.24;78.77
77410;BME280;66481;51.332;22.804;2023-04-23T00:05:11;99463.94;;;6.20;78.26
77410;BME280;66481;51.332;22.804;2023-04-23T00:09:14;99458.50;;;6.24;77.88
77410;BME280;66481;51.332;22.804;2023-04-23T00:13:16;99467.84;;;5.99;78.83
77410;BME280;66481;51.332;22.804;2023-04-23T00:17:17;99461.41;;;5.89;80.11
77410;BME280;66481;51.332;22.804;2023-04-23T00:21:19;99460.06;;;5.97;78.71
77410;BME280;66481;51.332;22.804;2023-04-23T00:25:20;99460.34;;;6.07;78.53
77410;BME280;66481;51.332;22.804;2023-04-23T00:29:21;99458.69;;;6.20;77.63
77410;BME280;66481;51.332;22.804;2023-04-23T00:33:22;99461.63;;;6.30;76.51
77410;BME280;66481;51.332;22.804;2023-04-23T00:37:23;99453.16;;;6.25;76.60
77410;BME280;66481;51.332;22.804;2023-04-23T00:41:25;99455.09;;;6.07;77.16
77410;BME280;66481;51.332;22.804;2023-04-23T00:45:28;99451.19;;;6.14;76.82
77410;BME280;66481;51.332;22.804;2023-04-23T00:49:29;99438.72;;;6.18;75.99
77410;BME280;66481;51.332;22.804;2023-04-23T00:53:31;99438.88;;;6.29;76.31
77410;BME280;66481;51.332;22.804;2023-04-23T00:57:37;99443.75;;;6.21;76.05
77410;BME280;66481;51.332;22.804;2023-04-23T01:01:38;99435.41;;;6.14;76.78
77410;BME280;66481;51.332;22.804;2023-04-23T01:05:41;99438.66;;;6.03;77.79
77410;BME280;66481;51.332;22.804;2023-04-23T01:09:42;99442.59;;;5.96;78.15
77410;BME280;66481;51.332;22.804;2023-04-23T01:13:43;99438.88;;;6.00;78.20
77410;BME280;66481;51.332;22.804;2023-04-23T01:17:44;99431.66;;;5.88;78.39
77410;BME280;66481;51.332;22.804;2023-04-23T01:21:49;99442.50;;;5.68;79.26
77410;BME280;66481;51.332;22.804;2023-04-23T01:25:50;99443.38;;;5.52;80.52
77410;BME280;66481;51.332;22.804;2023-04-23T01:29:52;99444.59;;;5.31;81.35
77410;BME280;66481;51.332;22.804;2023-04-23T01:33:53;99444.25;;;5.05;83.23
77410;BME280;66481;51.332;22.804;2023-04-23T01:37:56;99448.47;;;4.76;83.95
77410;BME280;66481;51.332;22.804;2023-04-23T01:41:58;99441.03;;;4.52;85.91
77410;BME280;66481;51.332;22.804;2023-04-23T01:46:01;99451.59;;;4.50;87.52
77410;BME280;66481;51.332;22.804;2023-04-23T01:50:02;99452.47;;;4.33;87.59
77410;BME280;66481;51.332;22.804;2023-04-23T01:54:04;99444.69;;;4.32;88.68
77410;BME280;66481;51.332;22.804;2023-04-23T01:58:05;99456.25;;;4.28;88.18
77410;BME280;66481;51.332;22.804;2023-04-23T02:02:07;99457.09;;;4.28;87.72
77410;BME280;66481;51.332;22.804;2023-04-23T02:06:11;99456.81;;;4.17;88.67
77410;BME280;66481;51.332;22.804;2023-04-23T02:10:13;99450.28;;;4.08;89.48
77410;BME280;66481;51.332;22.804;2023-04-23T02:14:14;99454.03;;;4.03;90.11
77410;BME280;66481;51.332;22.804;2023-04-23T02:18:17;99450.97;;;4.12;89.61
77410;BME280;66481;51.332;22.804;2023-04-23T02:22:18;99447.72;;;4.24;89.25
77410;BME280;66481;51.332;22.804;2023-04-23T02:26:19;99448.84;;;4.36;89.39
77410;BME280;66481;51.332;22.804;2023-04-23T02:30:22;99460.78;;;4.42;87.95
77410;BME280;66481;51.332;22.804;2023-04-23T02:34:25;99456.22;;;4.12;89.64
77410;BME280;66481;51.332;22.804;2023-04-23T02:38:26;99454.06;;;3.85;91.72
77410;BME280;66481;51.332;22.804;2023-04-23T02:42:27;99460.59;;;3.94;91.44
77410;BME280;66481;51.332;22.804;2023-04-23T02:46:28;99453.75;;;4.09;91.21
77410;BME280;66481;51.332;22.804;2023-04-23T02:50:31;99455.13;;;3.99;91.07
77410;BME280;66481;51.332;22.804;2023-04-23T02:54:33;99456.72;;;4.01;91.04
77410;BME280;66481;51.332;22.804;2023-04-23T02:58:36;99465.06;;;3.92;90.71
77410;BME280;66481;51.332;22.804;2023-04-23T03:02:37;99456.13;;;3.96;91.33
77410;BME280;66481;51.332;22.804;2023-04-23T03:06:38;99450.09;;;4.11;90.93
77410;BME280;66481;51.332;22.804;2023-04-23T03:10:39;99462.56;;;4.24;90.92
77410;BME280;66481;51.332;22.804;2023-04-23T03:14:40;99462.66;;;4.22;90.02
77410;BME280;66481;51.332;22.804;2023-04-23T03:18:41;99455.41;;;4.27;89.70
77410;BME280;66481;51.332;22.804;2023-04-23T03:22:42;99454.44;;;4.46;89.01
77410;BME280;66481;51.332;22.804;2023-04-23T03:26:43;99455.34;;;4.62;88.52
77410;BME280;66481;51.332;22.804;2023-04-23T03:30:44;99461.19;;;4.99;87.05
77410;BME280;66481;51.332;22.804;2023-04-23T03:34:45;99455.34;;;5.42;85.48
77410;BME280;66481;51.332;22.804;2023-04-23T03:38:46;99448.72;;;6.11;83.08
77410;BME280;66481;51.332;22.804;2023-04-23T03:42:47;99456.84;;;6.80;79.02
77410;BME280;66481;51.332;22.804;2023-04-23T03:46:48;99441.47;;;7.28;77.06
77410;BME280;66481;51.332;22.804;2023-04-23T03:50:49;99447.25;;;7.21;76.27
77410;BME280;66481;51.332;22.804;2023-04-23T03:54:50;99445.94;;;8.21;75.17
77410;BME280;66481;51.332;22.804;2023-04-23T03:58:51;99438.66;;;8.63;71.70
77410;BME280;66481;51.332;22.804;2023-04-23T04:02:52;99442.34;;;9.58;70.33
77410;BME280;66481;51.332;22.804;2023-04-23T04:06:53;99454.22;;;9.53;66.48
77410;BME280;66481;51.332;22.804;2023-04-23T04:10:54;99441.22;;;10.09;65.54
77410;BME280;66481;51.332;22.804;2023-04-23T04:14:55;99444.75;;;11.00;63.09
77410;BME280;66481;51.332;22.804;2023-04-23T04:18:56;99441.00;;;11.14;61.68
77410;BME280;66481;51.332;22.804;2023-04-23T04:22:57;99430.59;;;11.66;59.38
77410;BME280;66481;51.332;22.804;2023-04-23T04:26:58;99438.13;;;12.45;58.88
77410;BME280;66481;51.332;22.804;2023-04-23T04:30:59;99435.53;;;13.36;55.28
77410;BME280;66481;51.332;22.804;2023-04-23T04:35:01;99439.44;;;14.00;52.17
77410;BME280;66481;51.332;22.804;2023-04-23T04:39:03;99423.75;;;14.64;51.89
77410;BME280;66481;51.332;22.804;2023-04-23T04:43:05;99438.75;;;14.93;51.07
77410;BME280;66481;51.332;22.804;2023-04-23T04:47:06;99437.84;;;15.30;48.59
77410;BME280;66481;51.332;22.804;2023-04-23T04:51:07;99437.63;;;14.95;48.14
77410;BME280;66481;51.332;22.804;2023-04-23T04:55:11;99440.66;;;15.28;48.11
77410;BME280;66481;51.332;22.804;2023-04-23T04:59:12;99439.25;;;15.70;46.46
77410;BME280;66481;51.332;22.804;2023-04-23T05:03:14;99434.34;;;15.29;48.29
77410;BME280;66481;51.332;22.804;2023-04-23T05:07:15;99427.03;;;16.03;47.85
77410;BME280;66481;51.332;22.804;2023-04-23T05:11:18;99423.34;;;17.25;44.39
77410;BME280;66481;51.332;22.804;2023-04-23T05:15:23;99428.50;;;17.35;41.97
77410;BME280;66481;51.332;22.804;2023-04-23T05:19:24;99424.88;;;16.59;43.49
77410;BME280;66481;51.332;22.804;2023-04-23T05:23:26;99421.06;;;18.04;41.84
77410;BME280;66481;51.332;22.804;2023-04-23T05:27:27;99433.75;;;17.70;41.64
77410;BME280;66481;51.332;22.804;2023-04-23T05:31:28;99416.72;;;17.79;40.60
77410;BME280;66481;51.332;22.804;2023-04-23T05:35:30;99417.88;;;18.90;38.84
77410;BME280;66481;51.332;22.804;2023-04-23T05:39:31;99415.34;;;19.28;38.40
77410;BME280;66481;51.332;22.804;2023-04-23T05:43:33;99418.34;;;20.02;37.29
77410;BME280;66481;51.332;22.804;2023-04-23T05:47:35;99407.59;;;20.70;36.84
77410;BME280;66481;51.332;22.804;2023-04-23T05:51:36;99408.84;;;20.89;34.55
77410;BME280;66481;51.332;22.804;2023-04-23T05:55:39;99413.97;;;22.00;32.51
77410;BME280;66481;51.332;22.804;2023-04-23T05:59:40;99413.53;;;21.75;33.90
77410;BME280;66481;51.332;22.804;2023-04-23T06:03:41;99410.81;;;20.65;34.00
77410;BME280;66481;51.332;22.804;2023-04-23T06:07:45;99415.19;;;21.97;34.26
77410;BME280;66481;51.332;22.804;2023-04-23T06:11:46;99418.91;;;21.75;33.29
77410;BME280;66481;51.332;22.804;2023-04-23T06:15:50;99412.09;;;22.99;32.82
77410;BME280;66481;51.332;22.804;2023-04-23T06:19:51;99415.22;;;23.02;32.17
77410;BME280;66481;51.332;22.804;2023-04-23T06:23:52;99404.16;;;23.39;31.98
77410;BME280;66481;51.332;22.804;2023-04-23T06:27:53;99403.44;;;23.92;30.93
77410;BME280;66481;51.332;22.804;2023-04-23T06:31:55;99404.47;;;24.04;30.31
77410;BME280;66481;51.332;22.804;2023-04-23T06:35:57;99405.50;;;24.03;31.20
77410;BME280;66481;51.332;22.804;2023-04-23T06:39:58;99404.75;;;23.21;33.08
77410;BME280;66481;51.332;22.804;2023-04-23T06:44:00;99398.38;;;22.94;30.47
77410;BME280;66481;51.332;22.804;2023-04-23T06:48:01;99395.44;;;23.43;31.80
77410;BME280;66481;51.332;22.804;2023-04-23T06:52:02;99393.88;;;21.38;32.97
77410;BME280;66481;51.332;22.804;2023-04-23T06:56:04;99405.78;;;20.33;35.44
77410;BME280;66481;51.332;22.804;2023-04-23T07:00:06;99400.41;;;20.92;34.39
77410;BME280;66481;51.332;22.804;2023-04-23T07:04:09;99401.94;;;20.65;35.54
77410;BME280;66481;51.332;22.804;2023-04-23T07:08:10;99402.34;;;19.63;36.70
77410;BME280;66481;51.332;22.804;2023-04-23T07:12:11;99395.06;;;20.77;36.21
77410;BME280;66481;51.332;22.804;2023-04-23T07:16:13;99413.53;;;21.17;32.84
77410;BME280;66481;51.332;22.804;2023-04-23T07:20:14;99396.16;;;21.77;34.05
77410;BME280;66481;51.332;22.804;2023-04-23T07:24:16;99399.84;;;23.03;31.23
77410;BME280;66481;51.332;22.804;2023-04-23T07:28:17;99398.47;;;21.01;34.54
77410;BME280;66481;51.332;22.804;2023-04-23T07:32:18;99395.41;;;21.84;32.34
77410;BME280;66481;51.332;22.804;2023-04-23T07:36:22;99398.47;;;21.22;33.31
77410;BME280;66481;51.332;22.804;2023-04-23T07:40:26;99396.41;;;22.32;30.63
77410;BME280;66481;51.332;22.804;2023-04-23T07:44:27;99395.94;;;21.51;31.60
77410;BME280;66481;51.332;22.804;2023-04-23T07:48:28;99395.91;;;20.63;34.01
77410;BME280;66481;51.332;22.804;2023-04-23T07:52:29;99380.25;;;21.39;33.15
77410;BME280;66481;51.332;22.804;2023-04-23T07:56:30;99387.44;;;21.17;33.62
77410;BME280;66481;51.332;22.804;2023-04-23T08:00:32;99393.22;;;22.57;30.06
77410;BME280;66481;51.332;22.804;2023-04-23T08:04:33;99379.31;;;23.02;29.78
77410;BME280;66481;51.332;22.804;2023-04-23T08:08:35;99374.94;;;23.82;28.99
77410;BME280;66481;51.332;22.804;2023-04-23T08:12:37;99375.06;;;23.27;29.00
77410;BME280;66481;51.332;22.804;2023-04-23T08:16:38;99375.72;;;23.63;27.70
77410;BME280;66481;51.332;22.804;2023-04-23T08:20:40;99360.78;;;23.80;26.39
77410;BME280;66481;51.332;22.804;2023-04-23T08:24:43;99371.72;;;22.29;27.32
77410;BME280;66481;51.332;22.804;2023-04-23T08:28:46;99365.56;;;22.90;26.96
77410;BME280;66481;51.332;22.804;2023-04-23T08:32:49;99376.59;;;22.19;28.69
77410;BME280;66481;51.332;22.804;2023-04-23T08:36:51;99365.59;;;21.64;28.11
77410;BME280;66481;51.332;22.804;2023-04-23T08:40:56;99371.59;;;21.87;29.87
77410;BME280;66481;51.332;22.804;2023-04-23T08:44:58;99370.78;;;21.07;29.16
77410;BME280;66481;51.332;22.804;2023-04-23T08:49:01;99364.47;;;21.15;30.45
77410;BME280;66481;51.332;22.804;2023-04-23T08:53:05;99370.84;;;21.14;28.76
77410;BME280;66481;51.332;22.804;2023-04-23T08:57:07;99358.94;;;21.59;28.89
77410;BME280;66481;51.332;22.804;2023-04-23T09:01:09;99365.47;;;21.14;27.63
77410;BME280;66481;51.332;22.804;2023-04-23T09:05:12;99359.13;;;21.00;27.21
77410;BME280;66481;51.332;22.804;2023-04-23T09:09:15;99348.09;;;21.53;29.21
77410;BME280;66481;51.332;22.804;2023-04-23T09:13:17;99353.16;;;22.19;27.30
77410;BME280;66481;51.332;22.804;2023-04-23T09:17:20;99360.13;;;22.07;26.49
77410;BME280;66481;51.332;22.804;2023-04-23T09:21:24;99348.00;;;22.59;27.50
77410;BME280;66481;51.332;22.804;2023-04-23T09:25:25;99334.28;;;22.54;26.06
77410;BME280;66481;51.332;22.804;2023-04-23T09:29:26;99332.69;;;22.66;26.66
77410;BME280;66481;51.332;22.804;2023-04-23T09:33:28;99345.22;;;21.83;27.55
77410;BME280;66481;51.332;22.804;2023-04-23T09:37:29;99338.13;;;21.75;26.76
77410;BME280;66481;51.332;22.804;2023-04-23T09:41:31;99339.28;;;21.94;27.47
77410;BME280;66481;51.332;22.804;2023-04-23T09:45:32;99329.00;;;22.04;27.28
77410;BME280;66481;51.332;22.804;2023-04-23T09:49:45;99328.91;;;21.63;28.28
77410;BME280;66481;51.332;22.804;2023-04-23T09:53:47;99326.38;;;21.83;26.84
77410;BME280;66481;51.332;22.804;2023-04-23T09:57:48;99307.00;;;22.01;28.19
77410;BME280;66481;51.332;22.804;2023-04-23T10:01:50;99326.28;;;21.04;29.68
77410;BME280;66481;51.332;22.804;2023-04-23T10:05:53;99298.31;;;22.88;29.09
77410;BME280;66481;51.332;22.804;2023-04-23T10:09:55;99293.91;;;21.63;28.25
77410;BME280;66481;51.332;22.804;2023-04-23T10:13:56;99296.66;;;21.97;29.85
77410;BME280;66481;51.332;22.804;2023-04-23T10:17:58;99287.16;;;22.43;28.38
77410;BME280;66481;51.332;22.804;2023-04-23T10:22:07;99292.00;;;21.85;30.27
77410;BME280;66481;51.332;22.804;2023-04-23T10:26:14;99299.59;;;20.88;26.31
77410;BME280;66481;51.332;22.804;2023-04-23T10:30:16;99273.69;;;21.23;30.00
77410;BME280;66481;51.332;22.804;2023-04-23T10:34:18;99275.06;;;20.61;28.04
77410;BME280;66481;51.332;22.804;2023-04-23T10:38:20;99265.66;;;21.09;28.39
77410;BME280;66481;51.332;22.804;2023-04-23T10:42:24;99258.13;;;20.61;28.38
77410;BME280;66481;51.332;22.804;2023-04-23T10:46:33;99265.69;;;20.06;29.52
77410;BME280;66481;51.332;22.804;2023-04-23T10:50:35;99269.09;;;20.44;30.79
77410;BME280;66481;51.332;22.804;2023-04-23T10:54:36;99261.44;;;20.99;27.21
77410;BME280;66481;51.332;22.804;2023-04-23T10:58:47;99258.13;;;20.61;29.56
77410;BME280;66481;51.332;22.804;2023-04-23T11:02:50;99255.53;;;20.53;32.11
77410;BME280;66481;51.332;22.804;2023-04-23T11:07:03;99256.50;;;20.15;31.19
77410;BME280;66481;51.332;22.804;2023-04-23T11:11:08;99251.88;;;20.24;33.28
77410;BME280;66481;51.332;22.804;2023-04-23T11:15:18;99238.91;;;21.50;28.01
77410;BME280;66481;51.332;22.804;2023-04-23T11:19:19;99236.00;;;21.02;29.18
77410;BME280;66481;51.332;22.804;2023-04-23T11:23:29;99243.88;;;20.45;30.82
77410;BME280;66481;51.332;22.804;2023-04-23T11:27:40;99238.34;;;20.32;34.42
77410;BME280;66481;51.332;22.804;2023-04-23T11:31:42;99231.91;;;20.48;30.80
77410;BME280;66481;51.332;22.804;2023-04-23T11:35:43;99232.44;;;20.73;32.99
77410;BME280;66481;51.332;22.804;2023-04-23T11:39:45;99231.19;;;20.24;30.74
77410;BME280;66481;51.332;22.804;2023-04-23T11:43:47;99218.72;;;20.90;30.53
77410;BME280;66481;51.332;22.804;2023-04-23T11:47:50;99240.94;;;19.66;32.88
77410;BME280;66481;51.332;22.804;2023-04-23T11:51:58;99223.28;;;19.33;33.26
77410;BME280;66481;51.332;22.804;2023-04-23T11:56:00;99222.69;;;20.21;31.88
77410;BME280;66481;51.332;22.804;2023-04-23T12:00:11;99204.03;;;20.34;29.34
77410;BME280;66481;51.332;22.804;2023-04-23T12:04:19;99211.94;;;20.72;29.54
77410;BME280;66481;51.332;22.804;2023-04-23T12:08:20;99207.69;;;19.52;30.28
77410;BME280;66481;51.332;22.804;2023-04-23T12:12:21;99208.72;;;19.66;30.82
77410;BME280;66481;51.332;22.804;2023-04-23T12:16:33;99201.94;;;19.55;32.64
77410;BME280;66481;51.332;22.804;2023-04-23T12:20:34;99195.69;;;20.07;30.88
77410;BME280;66481;51.332;22.804;2023-04-23T12:24:49;99193.63;;;20.82;32.59
77410;BME280;66481;51.332;22.804;2023-04-23T12:28:55;99189.47;;;20.80;32.19
77410;BME280;66481;51.332;22.804;2023-04-23T12:33:00;99189.66;;;19.61;32.64
77410;BME280;66481;51.332;22.804;2023-04-23T12:37:05;99191.44;;;19.15;33.39
77410;BME280;66481;51.332;22.804;2023-04-23T12:41:07;99166.75;;;19.50;31.87
77410;BME280;66481;51.332;22.804;2023-04-23T12:45:08;99173.47;;;20.35;29.94
77410;BME280;66481;51.332;22.804;2023-04-23T12:49:09;99170.66;;;20.43;31.88
77410;BME280;66481;51.332;22.804;2023-04-23T12:53:11;99161.53;;;20.59;33.59
77410;BME280;66481;51.332;22.804;2023-04-23T12:57:12;99165.72;;;20.25;31.26
77410;BME280;66481;51.332;22.804;2023-04-23T13:01:14;99154.66;;;20.57;32.65
77410;BME280;66481;51.332;22.804;2023-04-23T13:05:16;99150.91;;;20.51;33.14
77410;BME280;66481;51.332;22.804;2023-04-23T13:09:17;99137.81;;;20.26;31.85
77410;BME280;66481;51.332;22.804;2023-04-23T13:13:18;99139.84;;;20.24;31.56
77410;BME280;66481;51.332;22.804;2023-04-23T13:17:19;99132.13;;;20.36;33.99
77410;BME280;66481;51.332;22.804;2023-04-23T13:21:21;99129.16;;;20.67;33.17
77410;BME280;66481;51.332;22.804;2023-04-23T13:25:23;99125.09;;;20.57;28.92
77410;BME280;66481;51.332;22.804;2023-04-23T13:29:24;99132.16;;;20.58;32.73
77410;BME280;66481;51.332;22.804;2023-04-23T13:33:29;99119.28;;;20.53;33.65
77410;BME280;66481;51.332;22.804;2023-04-23T13:37:31;99117.09;;;20.20;32.76
77410;BME280;66481;51.332;22.804;2023-04-23T13:41:35;99111.50;;;20.00;32.37
77410;BME280;66481;51.332;22.804;2023-04-23T13:45:36;99118.22;;;20.11;33.72
77410;BME280;66481;51.332;22.804;2023-04-23T13:49:37;99107.84;;;19.86;28.27
77410;BME280;66481;51.332;22.804;2023-04-23T13:53:38;99101.41;;;20.02;29.67
77410;BME280;66481;51.332;22.804;2023-04-23T13:57:40;99092.94;;;20.63;30.80
77410;BME280;66481;51.332;22.804;2023-04-23T14:01:41;99102.03;;;20.04;29.49
77410;BME280;66481;51.332;22.804;2023-04-23T14:10:21;99094.88;;;19.75;31.07
77410;BME280;66481;51.332;22.804;2023-04-23T14:14:22;99088.19;;;19.86;30.18
77410;BME280;66481;51.332;22.804;2023-04-23T14:18:24;99079.50;;;19.84;29.97
77410;BME280;66481;51.332;22.804;2023-04-23T14:22:25;99078.19;;;20.16;33.07
77410;BME280;66481;51.332;22.804;2023-04-23T14:26:32;99073.50;;;20.03;31.93
77410;BME280;66481;51.332;22.804;2023-04-23T14:30:34;99071.72;;;20.10;32.71
77410;BME280;66481;51.332;22.804;2023-04-23T14:34:35;99060.53;;;20.28;31.90
77410;BME280;66481;51.332;22.804;2023-04-23T14:38:36;99067.56;;;20.08;29.23
77410;BME280;66481;51.332;22.804;2023-04-23T14:42:38;99057.38;;;20.03;29.95
77410;BME280;66481;51.332;22.804;2023-04-23T14:46:39;99050.75;;;19.99;32.53
77410;BME280;66481;51.332;22.804;2023-04-23T14:50:41;99041.63;;;19.79;33.02
77410;BME280;66481;51.332;22.804;2023-04-23T14:54:43;99042.56;;;20.07;33.25
77410;BME280;66481;51.332;22.804;2023-04-23T14:58:45;99051.56;;;19.78;32.28
77410;BME280;66481;51.332;22.804;2023-04-23T15:02:46;99051.94;;;19.75;31.24
77410;BME280;66481;51.332;22.804;2023-04-23T15:06:47;99043.69;;;19.77;31.90
77410;BME280;66481;51.332;22.804;2023-04-23T15:10:48;99043.56;;;19.85;32.02
77410;BME280;66481;51.332;22.804;2023-04-23T15:14:53;99036.72;;;19.82;31.77
77410;BME280;66481;51.332;22.804;2023-04-23T15:18:55;99044.69;;;19.76;31.84
77410;BME280;66481;51.332;22.804;2023-04-23T15:22:56;99041.53;;;19.72;31.70
77410;BME280;66481;51.332;22.804;2023-04-23T15:26:58;99035.88;;;19.67;33.81
77410;BME280;66481;51.332;22.804;2023-04-23T15:31:00;99040.63;;;19.65;34.76
77410;BME280;66481;51.332;22.804;2023-04-23T15:35:01;99034.81;;;19.61;31.81
77410;BME280;66481;51.332;22.804;2023-04-23T15:39:03;99032.81;;;19.48;35.51
77410;BME280;66481;51.332;22.804;2023-04-23T15:43:04;99030.22;;;19.40;32.09
77410;BME280;66481;51.332;22.804;2023-04-23T15:47:06;99038.00;;;19.35;33.19
77410;BME280;66481;51.332;22.804;2023-04-23T15:51:07;99037.53;;;19.31;32.26
77410;BME280;66481;51.332;22.804;2023-04-23T15:55:10;99019.84;;;19.22;34.26
77410;BME280;66481;51.332;22.804;2023-04-23T15:59:11;99014.31;;;19.24;33.09
77410;BME280;66481;51.332;22.804;2023-04-23T16:03:14;99019.03;;;19.22;33.14
77410;BME280;66481;51.332;22.804;2023-04-23T16:07:15;99009.16;;;19.07;34.34
77410;BME280;66481;51.332;22.804;2023-04-23T16:11:18;99007.78;;;18.96;35.93
77410;BME280;66481;51.332;22.804;2023-04-23T16:15:19;99013.31;;;18.95;34.02
77410;BME280;66481;51.332;22.804;2023-04-23T16:19:23;99007.09;;;18.79;35.63
77410;BME280;66481;51.332;22.804;2023-04-23T16:23:27;99004.94;;;18.75;35.09
77410;BME280;66481;51.332;22.804;2023-04-23T16:27:28;98993.84;;;18.63;36.93
77410;BME280;66481;51.332;22.804;2023-04-23T16:31:30;99006.47;;;18.54;35.76
77410;BME280;66481;51.332;22.804;2023-04-23T16:35:31;98996.88;;;18.60;36.12
77410;BME280;66481;51.332;22.804;2023-04-23T16:39:32;98992.09;;;18.55;35.70
77410;BME280;66481;51.332;22.804;2023-04-23T16:43:33;98982.19;;;18.41;36.55
77410;BME280;66481;51.332;22.804;2023-04-23T16:47:34;98992.97;;;18.33;37.18
77410;BME280;66481;51.332;22.804;2023-04-23T16:51:35;98991.16;;;18.10;38.29
77410;BME280;66481;51.332;22.804;2023-04-23T16:55:37;98988.88;;;17.99;38.25
77410;BME280;66481;51.332;22.804;2023-04-23T16:59:38;98984.28;;;17.84;37.79
77410;BME280;66481;51.332;22.804;2023-04-23T17:03:40;98985.34;;;17.75;37.66
77410;BME280;66481;51.332;22.804;2023-04-23T17:07:42;98993.44;;;17.67;37.86
77410;BME280;66481;51.332;22.804;2023-04-23T17:11:44;98982.31;;;17.47;38.54
77410;BME280;66481;51.332;22.804;2023-04-23T17:15:48;98986.28;;;17.28;39.41
77410;BME280;66481;51.332;22.804;2023-04-23T17:19:51;98984.03;;;17.08;40.53
77410;BME280;66481;51.332;22.804;2023-04-23T17:23:56;98985.06;;;16.83;40.94
77410;BME280;66481;51.332;22.804;2023-04-23T17:27:58;98989.94;;;16.63;40.36
77410;BME280;66481;51.332;22.804;2023-04-23T17:32:00;98992.00;;;16.44;40.53
77410;BME280;66481;51.332;22.804;2023-04-23T17:36:03;98999.53;;;16.41;41.60
77410;BME280;66481;51.332;22.804;2023-04-23T17:40:05;98989.34;;;16.36;40.88
77410;BME280;66481;51.332;22.804;2023-04-23T17:44:06;98995.19;;;16.23;41.20
77410;BME280;66481;51.332;22.804;2023-04-23T17:48:08;99003.19;;;15.90;42.57
77410;BME280;66481;51.332;22.804;2023-04-23T17:52:09;98994.44;;;15.72;43.02
77410;BME280;66481;51.332;22.804;2023-04-23T17:56:10;99000.94;;;15.61;42.76
77410;BME280;66481;51.332;22.804;2023-04-23T18:00:12;99005.91;;;15.56;42.75
77410;BME280;66481;51.332;22.804;2023-04-23T18:04:14;99003.19;;;15.39;43.25
77410;BME280;66481;51.332;22.804;2023-04-23T18:08:16;99001.16;;;15.25;42.71
77410;BME280;66481;51.332;22.804;2023-04-23T18:12:19;98996.59;;;15.17;43.04
77410;BME280;66481;51.332;22.804;2023-04-23T18:16:20;99013.78;;;15.15;43.54
77410;BME280;66481;51.332;22.804;2023-04-23T18:20:22;99005.22;;;15.03;43.73
77410;BME280;66481;51.332;22.804;2023-04-23T18:24:24;99018.31;;;14.88;43.74
77410;BME280;66481;51.332;22.804;2023-04-23T18:28:25;99022.41;;;14.74;43.88
77410;BME280;66481;51.332;22.804;2023-04-23T18:32:27;99018.56;;;14.77;44.00
77410;BME280;66481;51.332;22.804;2023-04-23T18:36:32;99023.16;;;14.66;44.02
77410;BME280;66481;51.332;22.804;2023-04-23T18:40:36;99012.41;;;14.76;43.59
77410;BME280;66481;51.332;22.804;2023-04-23T18:44:37;99019.06;;;14.54;44.39
77410;BME280;66481;51.332;22.804;2023-04-23T18:48:44;99019.16;;;14.44;44.75
77410;BME280;66481;51.332;22.804;2023-04-23T18:52:46;99011.94;;;14.37;44.61
77410;BME280;66481;51.332;22.804;2023-04-23T18:56:46;99009.06;;;14.30;44.42
77410;BME280;66481;51.332;22.804;2023-04-23T19:00:48;99014.16;;;14.23;44.92
77410;BME280;66481;51.332;22.804;2023-04-23T19:04:50;99013.03;;;14.08;45.31
77410;BME280;66481;51.332;22.804;2023-04-23T19:08:52;99018.91;;;13.94;45.81
77410;BME280;66481;51.332;22.804;2023-04-23T19:12:54;99017.44;;;13.81;46.47
77410;BME280;66481;51.332;22.804;2023-04-23T19:16:56;99011.22;;;13.72;46.77
77410;BME280;66481;51.332;22.804;2023-04-23T19:20:58;99018.97;;;13.66;46.39
77410;BME280;66481;51.332;22.804;2023-04-23T19:25:00;99011.72;;;13.58;46.87
77410;BME280;66481;51.332;22.804;2023-04-23T19:29:01;99012.91;;;13.46;47.43
77410;BME280;66481;51.332;22.804;2023-04-23T19:33:04;99016.97;;;13.50;47.01
77410;BME280;66481;51.332;22.804;2023-04-23T19:37:06;99012.13;;;13.35;47.63
77410;BME280;66481;51.332;22.804;2023-04-23T19:41:07;99005.78;;;13.19;48.29
77410;BME280;66481;51.332;22.804;2023-04-23T19:45:09;99013.50;;;13.12;48.35
77410;BME280;66481;51.332;22.804;2023-04-23T19:49:10;99002.75;;;13.04;49.06
77410;BME280;66481;51.332;22.804;2023-04-23T19:53:11;99001.16;;;12.83;49.99
77410;BME280;66481;51.332;22.804;2023-04-23T19:57:14;98993.38;;;12.72;50.02
77410;BME280;66481;51.332;22.804;2023-04-23T20:01:16;99003.06;;;12.53;50.37
77410;BME280;66481;51.332;22.804;2023-04-23T20:05:18;98999.34;;;12.27;52.17
77410;BME280;66481;51.332;22.804;2023-04-23T20:09:19;99003.25;;;12.22;52.50
77410;BME280;66481;51.332;22.804;2023-04-23T20:13:22;98993.38;;;12.15;52.17
77410;BME280;66481;51.332;22.804;2023-04-23T20:17:23;98997.13;;;12.12;52.76
77410;BME280;66481;51.332;22.804;2023-04-23T20:21:26;98985.94;;;11.99;52.59
77410;BME280;66481;51.332;22.804;2023-04-23T20:25:27;98989.72;;;11.77;53.91
77410;BME280;66481;51.332;22.804;2023-04-23T20:29:29;98994.44;;;11.63;55.09
77410;BME280;66481;51.332;22.804;2023-04-23T20:33:31;98997.34;;;11.51;55.64
77410;BME280;66481;51.332;22.804;2023-04-23T20:37:33;98987.16;;;11.46;56.13
77410;BME280;66481;51.332;22.804;2023-04-23T20:41:34;98978.91;;;11.39;55.86
77410;BME280;66481;51.332;22.804;2023-04-23T20:45:36;98986.31;;;11.36;56.40
77410;BME280;66481;51.332;22.804;2023-04-23T20:49:38;98981.56;;;11.39;55.88
77410;BME280;66481;51.332;22.804;2023-04-23T20:53:39;98988.81;;;11.37;56.23
77410;BME280;66481;51.332;22.804;2023-04-23T20:57:41;98987.25;;;11.35;56.35
77410;BME280;66481;51.332;22.804;2023-04-23T21:01:42;98981.28;;;11.33;56.54
77410;BME280;66481;51.332;22.804;2023-04-23T21:05:43;98996.06;;;11.35;55.99
77410;BME280;66481;51.332;22.804;2023-04-23T21:09:44;98981.09;;;11.24;56.77
77410;BME280;66481;51.332;22.804;2023-04-23T21:13:45;98986.41;;;11.24;56.66